Time;durP1;ratioP1;P1;durP2;ratioP2;P2;SDS_P1;SDS_P2;PMS_P1;PMS_P2;Temp;Humidity;BMP_temperature;BMP_pressure;BME280_temperature;BME280_humidity;BME280_pressure;Samples;Min_cycle;Max_cycle;Signal;HPM_P1;HPM_P2
2022/08/26 00:01:54;;;;;;;4.82;3.20;;;28.20;50.60;;;;;;5016482;28;20033;-80
2022/08/26 00:04:22;;;;;;;3.65;2.90;;;28.10;50.60;;;;;;4999107;28;20540;-80
2022/08/26 00:06:48;;;;;;;5.35;3.15;;;28.10;50.60;;;;;;5016731;28;20492;-80
2022/08/26 00:09:13;;;;;;;3.65;2.65;;;28.10;50.60;;;;;;4997986;28;20034;-80
2022/08/26 00:11:39;;;;;;;3.60;2.75;;;28.10;50.70;;;;;;5016426;28;20105;-81
2022/08/26 00:14:05;;;;;;;4.65;2.92;;;28.00;50.70;;;;;;4982670;28;20030;-81
2022/08/26 00:16:31;;;;;;;4.35;2.97;;;28.00;50.80;;;;;;4966261;28;20037;-81
2022/08/26 00:18:58;;;;;;;4.68;2.65;;;28.00;50.80;;;;;;4998157;28;20029;-80
2022/08/26 00:21:23;;;;;;;3.85;2.72;;;27.90;50.80;;;;;;4982067;28;20126;-80
2022/08/26 00:23:49;;;;;;;4.53;2.70;;;27.90;50.90;;;;;;4982161;28;20058;-80
2022/08/26 00:26:15;;;;;;;3.95;2.78;;;27.90;51.00;;;;;;4998719;28;20479;-81
2022/08/26 00:28:41;;;;;;;5.00;2.78;;;27.80;51.00;;;;;;5015731;28;20056;-80
2022/08/26 00:31:07;;;;;;;4.18;2.92;;;27.80;51.10;;;;;;4998208;28;20073;-81
2022/08/26 00:33:33;;;;;;;3.28;2.47;;;27.80;51.10;;;;;;4997518;28;20037;-80
2022/08/26 00:36:00;;;;;;;4.15;2.80;;;27.70;51.10;;;;;;4997964;28;20030;-80
2022/08/26 00:38:26;;;;;;;4.05;2.63;;;27.70;51.20;;;;;;4998441;28;20459;-80
2022/08/26 00:40:54;;;;;;;3.25;2.30;;;27.70;51.20;;;;;;4981622;28;20030;-81
2022/08/26 00:43:21;;;;;;;4.65;2.90;;;27.60;51.20;;;;;;4997975;28;20029;-80
2022/08/26 00:46:19;;;;;;;4.05;2.55;;;27.60;51.30;;;;;;5015954;28;20435;-80
2022/08/26 00:48:48;;;;;;;3.25;2.20;;;27.60;51.50;;;;;;4978702;28;20109;-81
2022/08/26 00:51:21;;;;;;;3.30;2.30;;;27.60;51.50;;;;;;5016011;28;20084;-81
2022/08/26 00:53:53;;;;;;;3.53;2.20;;;27.50;51.50;;;;;;4997592;28;20393;-82
2022/08/26 00:56:30;;;;;;;3.78;2.25;;;27.50;51.60;;;;;;5015049;28;20025;-79
2022/08/26 00:58:59;;;;;;;2.33;2.05;;;27.50;51.70;;;;;;5015337;28;20109;-81
2022/08/26 01:01:27;;;;;;;3.28;2.13;;;27.40;51.60;;;;;;4997188;28;20029;-81
2022/08/26 01:03:54;;;;;;;3.00;1.88;;;27.40;51.70;;;;;;4980623;28;20034;-80
2022/08/26 01:06:22;;;;;;;2.92;1.90;;;27.30;51.60;;;;;;5015224;28;20041;-80
2022/08/26 01:08:48;;;;;;;3.55;2.13;;;27.30;51.70;;;;;;5015423;28;20041;-80
2022/08/26 01:11:15;;;;;;;2.47;2.00;;;27.30;51.70;;;;;;5014562;28;20038;-80
2022/08/26 01:13:41;;;;;;;2.90;2.08;;;27.30;51.80;;;;;;4997130;28;20045;-80
2022/08/26 01:16:11;;;;;;;2.53;1.90;;;27.20;51.80;;;;;;4997137;28;20482;-80
2022/08/26 01:18:40;;;;;;;2.45;1.83;;;27.30;51.90;;;;;;5014454;28;20057;-81
2022/08/26 01:21:20;;;;;;;3.38;2.08;;;27.20;51.90;;;;;;4996728;28;20025;-82
2022/08/26 01:23:49;;;;;;;2.38;1.90;;;27.10;51.80;;;;;;5014972;28;20498;-80
2022/08/26 01:26:40;;;;;;;2.47;1.77;;;27.20;51.90;;;;;;4981073;28;20022;-80
2022/08/26 01:29:11;;;;;;;2.50;1.80;;;27.10;51.90;;;;;;4996763;28;20049;-80
2022/08/26 01:31:48;;;;;;;2.42;1.80;;;27.10;51.90;;;;;;4996784;28;20041;-81
2022/08/26 01:34:34;;;;;;;2.95;1.73;;;27.00;52.00;;;;;;5014573;28;20117;-80
2022/08/26 01:37:06;;;;;;;1.85;1.40;;;27.00;52.00;;;;;;4997582;28;20022;-80
2022/08/26 01:39:33;;;;;;;3.05;1.77;;;27.00;52.00;;;;;;5014689;28;20038;-80
2022/08/26 01:42:00;;;;;;;2.03;1.70;;;27.00;52.00;;;;;;5014215;28;20026;-80
2022/08/26 01:44:31;;;;;;;3.22;1.70;;;27.00;52.10;;;;;;5013910;28;20044;-80
2022/08/26 01:46:58;;;;;;;2.15;1.52;;;26.90;52.10;;;;;;4996888;28;20057;-80
2022/08/26 01:49:26;;;;;;;2.65;1.70;;;26.90;52.20;;;;;;4996720;28;20044;-80
2022/08/26 01:51:55;;;;;;;2.05;1.45;;;26.90;52.30;;;;;;4996346;28;20404;-80
2022/08/26 01:54:23;;;;;;;1.77;1.50;;;26.80;52.20;;;;;;5014481;28;20115;-79
2022/08/26 01:56:50;;;;;;;2.53;1.60;;;26.80;52.20;;;;;;5014554;28;20471;-79
2022/08/26 01:59:18;;;;;;;2.85;1.45;;;26.80;52.20;;;;;;4981140;28;20030;-78
2022/08/26 02:01:45;;;;;;;2.95;1.85;;;26.80;52.30;;;;;;4996447;28;20091;-79
2022/08/26 02:04:32;;;;;;;2.03;1.50;;;26.80;52.30;;;;;;4980438;28;20038;-80
2022/08/26 02:07:01;;;;;;;2.20;1.33;;;26.70;52.40;;;;;;5013912;28;20033;-79
2022/08/26 02:09:27;;;;;;;2.33;1.38;;;26.70;52.40;;;;;;4996628;28;20025;-79
2022/08/26 02:11:53;;;;;;;2.53;1.50;;;26.70;52.50;;;;;;4996660;28;20099;-79
2022/08/26 02:14:26;;;;;;;2.67;1.45;;;26.60;53.20;;;;;;4996333;28;20374;-80
2022/08/26 02:16:54;;;;;;;1.90;1.33;;;26.60;52.60;;;;;;4996080;28;20116;-79
2022/08/26 02:19:29;;;;;;;2.63;1.40;;;26.60;52.60;;;;;;5014002;28;20034;-80
2022/08/26 02:21:56;;;;;;;1.42;1.17;;;26.60;52.70;;;;;;4996248;28;20030;-81
2022/08/26 02:24:26;;;;;;;1.67;1.42;;;26.50;52.50;;;;;;5014062;28;20049;-80
2022/08/26 02:26:52;;;;;;;1.67;1.42;;;26.50;52.60;;;;;;5014403;28;20034;-79
2022/08/26 02:29:40;;;;;;;1.83;1.23;;;26.50;52.60;;;;;;4996401;28;20029;-80
2022/08/26 02:32:09;;;;;;;1.48;1.10;;;26.50;52.80;;;;;;5014010;28;20073;-81
2022/08/26 02:34:35;;;;;;;2.00;1.50;;;26.40;52.70;;;;;;5013781;28;20034;-80
2022/08/26 02:37:08;;;;;;;1.67;1.20;;;26.40;52.70;;;;;;4996160;28;20087;-79
2022/08/26 02:39:35;;;;;;;1.30;1.20;;;26.40;52.80;;;;;;5013724;28;20026;-79
2022/08/26 02:42:02;;;;;;;1.90;1.30;;;26.40;52.80;;;;;;5013533;28;20025;-81
2022/08/26 02:44:28;;;;;;;1.48;1.20;;;26.30;52.80;;;;;;4995767;28;20475;-80
2022/08/26 02:46:54;;;;;;;1.88;1.20;;;26.30;52.80;;;;;;4995774;28;20033;-80
2022/08/26 02:49:20;;;;;;;1.48;1.20;;;26.30;52.90;;;;;;4995996;28;20037;-80
2022/08/26 02:51:48;;;;;;;1.65;1.15;;;26.30;52.90;;;;;;4996023;28;20049;-80
2022/08/26 02:54:15;;;;;;;2.45;1.27;;;26.30;53.00;;;;;;5013502;28;20048;-82
2022/08/26 02:56:42;;;;;;;1.83;1.27;;;26.30;53.00;;;;;;4979621;28;20030;-80
2022/08/26 02:59:08;;;;;;;1.63;1.10;;;26.20;52.90;;;;;;4995819;28;20033;-81
2022/08/26 03:01:35;;;;;;;1.23;1.13;;;26.20;52.90;;;;;;4979776;28;20525;-79
2022/08/26 03:04:03;;;;;;;1.35;1.25;;;26.20;53.00;;;;;;4995719;28;20453;-79
2022/08/26 03:06:29;;;;;;;1.65;1.20;;;26.20;53.10;;;;;;4995944;28;20033;-79
2022/08/26 03:08:55;;;;;;;1.90;1.27;;;26.10;53.20;;;;;;5013003;28;20040;-79
2022/08/26 03:11:22;;;;;;;2.88;1.20;;;26.10;53.20;;;;;;4995583;28;20026;-80
2022/08/26 03:13:48;;;;;;;1.83;1.10;;;26.10;53.90;;;;;;4979382;28;20478;-80
2022/08/26 03:16:15;;;;;;;2.13;1.00;;;26.10;53.30;;;;;;4995871;28;20042;-81
2022/08/26 03:18:41;;;;;;;2.50;1.30;;;26.10;53.40;;;;;;4979840;28;20037;-79
2022/08/26 03:21:09;;;;;;;2.40;1.10;;;26.00;53.40;;;;;;4995315;28;20073;-80
2022/08/26 03:23:37;;;;;;;1.10;1.00;;;26.00;53.40;;;;;;4980294;28;20037;-79
2022/08/26 03:26:04;;;;;;;1.58;1.10;;;26.00;53.50;;;;;;4995645;28;20026;-79
2022/08/26 03:28:30;;;;;;;1.65;1.15;;;26.00;54.30;;;;;;5013493;28;20415;-79
2022/08/26 03:30:56;;;;;;;1.90;1.10;;;26.00;53.60;;;;;;4995742;28;20105;-79
2022/08/26 03:33:23;;;;;;;1.85;0.85;;;26.00;53.60;;;;;;4979642;28;20022;-80
2022/08/26 03:35:51;;;;;;;1.42;1.00;;;26.00;53.70;;;;;;4995583;28;20032;-80
2022/08/26 03:38:21;;;;;;;1.45;1.10;;;26.00;53.70;;;;;;4995887;28;20112;-79
2022/08/26 03:40:47;;;;;;;1.38;1.08;;;25.90;53.70;;;;;;4995766;28;20523;-80
2022/08/26 03:43:15;;;;;;;2.10;1.20;;;25.90;53.70;;;;;;4995395;28;20166;-79
2022/08/26 03:45:41;;;;;;;1.35;0.80;;;25.90;53.70;;;;;;5014993;28;20034;-79
2022/08/26 03:48:07;;;;;;;1.92;1.00;;;25.90;53.70;;;;;;4999703;28;20425;-81
2022/08/26 03:50:33;;;;;;;1.70;1.10;;;25.90;53.70;;;;;;4983416;28;20025;-81
2022/08/26 03:52:59;;;;;;;0.98;0.80;;;25.80;53.70;;;;;;4982641;28;20046;-80
2022/08/26 03:55:27;;;;;;;1.15;0.93;;;25.80;53.70;;;;;;4982522;28;20044;-78
2022/08/26 03:57:53;;;;;;;1.42;1.13;;;25.80;53.80;;;;;;4998830;28;20030;-80
2022/08/26 04:00:19;;;;;;;0.90;0.90;;;25.80;53.70;;;;;;5016340;28;20034;-80
2022/08/26 04:02:49;;;;;;;0.80;0.80;;;25.80;53.80;;;;;;4982578;28;20036;-80
2022/08/26 04:05:18;;;;;;;1.15;0.82;;;25.80;53.80;;;;;;4982600;28;20453;-80
2022/08/26 04:07:44;;;;;;;1.42;1.00;;;25.80;53.90;;;;;;5016477;28;20022;-80
2022/08/26 04:10:13;;;;;;;1.30;1.00;;;25.70;53.90;;;;;;4998727;28;20030;-79
2022/08/26 04:12:39;;;;;;;1.00;0.90;;;25.70;54.00;;;;;;4998648;28;20030;-79
2022/08/26 04:15:07;;;;;;;2.20;1.10;;;25.70;54.00;;;;;;4998626;28;20026;-79
2022/08/26 04:17:33;;;;;;;1.33;0.82;;;25.70;54.10;;;;;;4982191;28;20176;-81
2022/08/26 04:19:59;;;;;;;1.33;1.00;;;25.70;54.10;;;;;;4998536;28;20069;-80
2022/08/26 04:22:25;;;;;;;1.25;1.13;;;25.70;54.10;;;;;;4998110;28;20058;-79
2022/08/26 04:24:51;;;;;;;1.80;0.93;;;25.60;54.00;;;;;;4998361;28;20042;-79
2022/08/26 04:27:16;;;;;;;1.15;1.00;;;25.60;54.10;;;;;;4998588;28;20034;-79
2022/08/26 04:29:42;;;;;;;1.92;1.00;;;25.60;54.20;;;;;;4998148;28;20115;-80
2022/08/26 04:32:08;;;;;;;1.33;0.90;;;25.60;54.30;;;;;;5015244;28;20509;-80
2022/08/26 04:34:34;;;;;;;1.42;0.70;;;25.60;54.30;;;;;;4998128;28;20531;-79
2022/08/26 04:37:00;;;;;;;1.63;0.80;;;25.60;54.30;;;;;;4981787;28;20117;-80
2022/08/26 04:39:27;;;;;;;1.60;0.80;;;25.60;54.30;;;;;;4997886;28;20510;-81
2022/08/26 04:41:56;;;;;;;1.52;0.90;;;25.60;54.30;;;;;;4998565;28;20037;-80
2022/08/26 04:44:24;;;;;;;0.85;0.80;;;25.60;54.30;;;;;;4997824;28;20427;-80
2022/08/26 04:46:51;;;;;;;0.80;0.80;;;25.60;54.40;;;;;;4998328;28;20033;-79
2022/08/26 04:49:17;;;;;;;1.25;0.80;;;25.60;54.40;;;;;;4998058;28;20088;-80
2022/08/26 04:51:43;;;;;;;0.80;0.70;;;25.50;54.40;;;;;;4997522;28;20042;-80
2022/08/26 04:54:09;;;;;;;1.25;0.82;;;25.50;54.30;;;;;;4998657;28;20044;-80
2022/08/26 04:56:38;;;;;;;1.63;0.70;;;25.50;54.30;;;;;;4996920;28;20034;-81
2022/08/26 04:59:06;;;;;;;1.00;0.80;;;25.50;54.40;;;;;;4997566;28;20044;-80
2022/08/26 05:01:33;;;;;;;1.77;0.90;;;25.50;54.50;;;;;;4997630;28;20071;-80
2022/08/26 05:04:00;;;;;;;1.30;0.88;;;25.40;54.30;;;;;;4997313;28;20034;-79
2022/08/26 05:06:26;;;;;;;2.35;0.88;;;25.50;54.40;;;;;;4997777;28;20030;-80
2022/08/26 05:08:53;;;;;;;1.02;0.85;;;25.50;54.40;;;;;;4981273;28;20026;-81
2022/08/26 05:11:19;;;;;;;1.65;0.70;;;25.50;54.40;;;;;;4997586;28;20136;-80
2022/08/26 05:13:45;;;;;;;1.15;0.70;;;25.50;54.40;;;;;;4981058;28;20065;-80
2022/08/26 05:16:13;;;;;;;1.52;0.77;;;25.40;54.40;;;;;;4997222;28;20474;-79
2022/08/26 05:18:41;;;;;;;0.75;0.75;;;25.40;54.40;;;;;;4997398;28;20096;-79
2022/08/26 05:21:07;;;;;;;1.02;0.70;;;25.40;54.50;;;;;;4997347;28;20033;-80
2022/08/26 05:23:35;;;;;;;0.80;0.80;;;25.40;54.50;;;;;;4982542;28;20117;-80
2022/08/26 05:26:00;;;;;;;0.90;0.80;;;25.40;55.30;;;;;;4997051;28;20022;-79
2022/08/26 05:28:28;;;;;;;1.20;0.80;;;25.40;54.60;;;;;;4997124;28;20049;-79
2022/08/26 05:30:55;;;;;;;2.00;0.98;;;25.40;54.80;;;;;;4980941;28;20057;-80
2022/08/26 05:33:21;;;;;;;1.45;1.05;;;25.40;54.90;;;;;;4996905;28;20040;-81
2022/08/26 05:35:47;;;;;;;1.83;0.70;;;25.40;54.90;;;;;;5014455;28;20103;-81
2022/08/26 05:38:16;;;;;;;2.20;0.80;;;25.30;54.90;;;;;;4997407;28;20026;-81
2022/08/26 05:40:45;;;;;;;0.93;0.80;;;25.40;55.00;;;;;;5014598;28;20467;-82
2022/08/26 05:43:12;;;;;;;1.48;0.80;;;25.30;54.90;;;;;;4980591;28;20029;-80
2022/08/26 05:45:44;;;;;;;0.93;0.70;;;25.40;55.00;;;;;;4996967;28;20034;-81
2022/08/26 05:48:10;;;;;;;1.08;0.80;;;25.30;54.90;;;;;;4996532;28;20480;-81
2022/08/26 05:50:48;;;;;;;1.10;0.80;;;25.30;54.90;;;;;;4997171;28;20115;-82
2022/08/26 05:53:17;;;;;;;1.70;0.77;;;25.30;55.00;;;;;;4996617;28;20050;-81
2022/08/26 05:55:51;;;;;;;0.95;0.70;;;25.30;55.00;;;;;;4996076;28;20075;-81
2022/08/26 05:58:21;;;;;;;;;;;25.30;55.10;;;;;;5014310;28;20109;-83
2022/08/26 06:01:03;;;;;;;1.08;0.75;;;25.30;54.80;;;;;;4980703;28;20059;-80
2022/08/26 06:03:32;;;;;;;1.83;1.10;;;25.30;55.00;;;;;;4996538;28;20048;-80
2022/08/26 06:06:02;;;;;;;1.58;1.00;;;25.30;55.10;;;;;;4980373;28;20115;-80
2022/08/26 06:08:28;;;;;;;1.90;0.80;;;25.30;55.30;;;;;;5013050;28;20033;-80
2022/08/26 06:10:58;;;;;;;1.42;0.80;;;25.30;55.30;;;;;;4995910;28;20057;-81
2022/08/26 06:13:25;;;;;;;0.80;0.70;;;25.30;55.30;;;;;;4996057;28;20030;-80
2022/08/26 06:15:52;;;;;;;2.83;0.90;;;25.30;55.30;;;;;;4995893;28;20041;-80
2022/08/26 06:18:29;;;;;;;0.73;0.70;;;25.30;55.40;;;;;;5013552;28;20030;-79
2022/08/26 06:20:55;;;;;;;2.65;0.90;;;25.30;55.40;;;;;;5013644;28;20112;-81
2022/08/26 06:26:06;;;;;;;1.23;0.60;;;25.30;55.40;;;;;;4996631;28;20072;-81
2022/08/26 06:28:32;;;;;;;2.08;0.98;;;25.30;55.50;;;;;;4996432;28;20060;-79
2022/08/26 06:30:58;;;;;;;0.80;0.80;;;25.30;55.60;;;;;;5013384;28;20030;-81
2022/08/26 06:33:26;;;;;;;1.30;0.82;;;25.30;55.70;;;;;;4980268;28;20041;-81
2022/08/26 06:35:52;;;;;;;1.98;0.90;;;25.30;55.80;;;;;;4980070;28;20027;-80
2022/08/26 06:38:18;;;;;;;1.48;0.82;;;25.30;55.90;;;;;;4995782;28;20033;-80
2022/08/26 06:40:47;;;;;;;1.50;0.80;;;25.30;56.00;;;;;;4980405;28;20096;-81
2022/08/26 06:43:16;;;;;;;1.98;0.98;;;25.30;56.10;;;;;;5013349;28;20029;-80
2022/08/26 06:45:44;;;;;;;1.13;0.80;;;25.40;56.30;;;;;;4995806;28;20130;-81
2022/08/26 06:48:10;;;;;;;0.95;0.75;;;25.30;56.30;;;;;;4996653;28;20133;-81
2022/08/26 06:50:35;;;;;;;1.55;0.98;;;25.30;56.20;;;;;;4979935;28;20042;-80
2022/08/26 06:53:01;;;;;;;0.60;0.60;;;25.40;56.40;;;;;;4979499;28;20057;-82
2022/08/26 06:55:27;;;;;;;0.95;0.70;;;25.40;56.40;;;;;;4979341;28;20033;-79
2022/08/26 06:57:53;;;;;;;1.23;0.80;;;25.40;56.50;;;;;;4979597;28;20030;-79
2022/08/26 07:00:20;;;;;;;1.02;0.77;;;25.40;56.50;;;;;;4979073;28;20022;-81
2022/08/26 07:02:45;;;;;;;2.55;1.20;;;25.40;56.50;;;;;;4979482;28;20056;-80
2022/08/26 07:05:11;;;;;;;0.80;0.80;;;25.40;56.40;;;;;;4995864;28;20042;-80
2022/08/26 07:07:37;;;;;;;1.42;0.70;;;25.40;56.40;;;;;;4995737;28;20033;-80
2022/08/26 07:10:04;;;;;;;1.45;0.77;;;25.40;56.50;;;;;;4995468;28;20494;-79
2022/08/26 07:12:30;;;;;;;0.70;0.70;;;25.40;56.40;;;;;;5012890;28;20022;-80
2022/08/26 07:14:56;;;;;;;1.15;0.68;;;25.40;56.40;;;;;;4996440;28;20125;-79
2022/08/26 07:17:22;;;;;;;1.67;0.95;;;25.50;56.50;;;;;;4995364;28;20045;-79
2022/08/26 07:19:48;;;;;;;2.13;1.02;;;25.50;56.60;;;;;;5014384;28;20053;-79
2022/08/26 07:22:14;;;;;;;1.92;1.00;;;25.50;56.50;;;;;;4999081;28;20117;-79
2022/08/26 07:24:40;;;;;;;2.80;0.90;;;25.50;56.50;;;;;;5016870;28;20042;-80
2022/08/26 07:27:09;;;;;;;1.00;0.73;;;25.50;56.50;;;;;;4983388;28;20084;-80
2022/08/26 07:29:37;;;;;;;1.90;0.70;;;25.50;56.50;;;;;;4999711;28;20033;-81
2022/08/26 07:32:04;;;;;;;2.40;0.82;;;25.50;56.40;;;;;;4999473;28;20030;-81
2022/08/26 07:34:33;;;;;;;1.52;1.05;;;25.60;56.50;;;;;;4999130;28;20030;-80
2022/08/26 07:36:59;;;;;;;0.82;0.60;;;25.60;56.50;;;;;;4998519;28;20073;-80
2022/08/26 07:39:26;;;;;;;1.52;0.73;;;25.60;56.60;;;;;;4966553;28;20030;-82
2022/08/26 07:41:52;;;;;;;1.55;0.80;;;25.60;56.70;;;;;;4999006;28;20084;-79
2022/08/26 07:44:18;;;;;;;1.08;0.82;;;25.60;56.60;;;;;;4998697;28;20121;-78
2022/08/26 07:46:44;;;;;;;0.98;0.70;;;25.60;56.60;;;;;;4998830;28;20184;-79
2022/08/26 07:49:10;;;;;;;1.45;0.88;;;25.60;56.60;;;;;;4982876;28;20114;-79
2022/08/26 07:51:37;;;;;;;1.25;1.00;;;25.60;56.60;;;;;;4982476;28;20030;-80
2022/08/26 07:54:04;;;;;;;0.80;0.60;;;25.70;56.70;;;;;;4999383;28;20034;-79
2022/08/26 07:56:30;;;;;;;1.30;0.70;;;25.70;56.80;;;;;;4982280;28;20044;-81
2022/08/26 07:58:56;;;;;;;1.33;0.90;;;25.70;56.80;;;;;;4999032;28;20038;-81
2022/08/26 08:01:23;;;;;;;1.77;0.90;;;25.70;56.80;;;;;;5016316;28;20467;-79
2022/08/26 08:03:50;;;;;;;0.63;0.63;;;25.70;56.90;;;;;;4998349;28;20473;-81
2022/08/26 08:06:18;;;;;;;1.42;0.90;;;25.70;56.90;;;;;;5015979;28;20026;-82
2022/08/26 08:08:45;;;;;;;2.38;0.77;;;25.80;56.90;;;;;;4998332;28;20034;-82
2022/08/26 08:11:10;;;;;;;3.40;1.00;;;25.80;56.90;;;;;;5015836;28;20084;-81
2022/08/26 08:13:37;;;;;;;2.03;0.95;;;25.80;56.90;;;;;;4982949;28;20474;-82
2022/08/26 08:16:03;;;;;;;1.60;0.80;;;25.80;56.90;;;;;;4982241;28;20029;-81
2022/08/26 08:18:29;;;;;;;2.58;0.98;;;25.80;56.90;;;;;;4998431;28;20041;-82
2022/08/26 08:20:55;;;;;;;1.95;0.80;;;25.90;56.90;;;;;;4998456;28;20026;-80
2022/08/26 08:23:21;;;;;;;2.25;0.90;;;25.80;56.70;;;;;;4997756;28;20124;-82
2022/08/26 08:25:48;;;;;;;2.40;0.95;;;25.90;56.70;;;;;;4982423;28;20069;-81
2022/08/26 08:28:14;;;;;;;0.80;0.63;;;25.90;56.60;;;;;;4982390;28;20030;-81
2022/08/26 08:30:41;;;;;;;1.30;0.80;;;25.90;56.60;;;;;;4998032;28;20037;-82
2022/08/26 08:33:07;;;;;;;1.08;0.63;;;26.00;56.60;;;;;;4982428;28;20518;-82
2022/08/26 08:35:33;;;;;;;0.95;0.73;;;26.00;56.60;;;;;;5000788;28;20050;-80
2022/08/26 08:37:59;;;;;;;1.38;0.80;;;26.00;56.50;;;;;;4984982;28;20026;-81
2022/08/26 08:40:26;;;;;;;1.45;0.77;;;26.00;56.50;;;;;;4998515;28;20033;-81
2022/08/26 08:43:08;;;;;;;1.13;0.60;;;26.00;56.50;;;;;;4982170;28;20377;-81
2022/08/26 08:45:48;;;;;;;0.57;0.50;;;26.00;56.60;;;;;;4998156;28;20495;-82
2022/08/26 08:48:13;;;;;;;1.60;0.80;;;26.00;56.50;;;;;;4998421;28;20116;-82
2022/08/26 08:50:44;;;;;;;1.55;0.80;;;26.00;57.20;;;;;;4998191;28;20466;-82
2022/08/26 08:53:18;;;;;;;1.05;0.70;;;26.00;56.60;;;;;;4998106;28;20084;-82
2022/08/26 08:56:09;;;;;;;2.28;1.00;;;26.10;56.80;;;;;;4981606;28;20124;-81
2022/08/26 08:58:56;;;;;;;1.55;0.70;;;26.00;56.80;;;;;;4981373;28;20462;-81
2022/08/26 09:01:35;;;;;;;0.98;0.80;;;26.00;56.70;;;;;;4981123;28;20049;-81
2022/08/26 09:04:13;;;;;;;2.17;0.93;;;26.00;56.70;;;;;;4981477;28;20074;-81
2022/08/26 09:06:40;;;;;;;1.80;0.93;;;26.10;56.70;;;;;;4981309;28;20423;-80
2022/08/26 09:09:06;;;;;;;1.30;0.75;;;26.10;56.70;;;;;;4996962;28;20025;-81
2022/08/26 09:11:34;;;;;;;2.13;0.80;;;26.10;57.30;;;;;;4981617;28;20490;-81
2022/08/26 09:14:00;;;;;;;1.55;0.90;;;26.10;56.70;;;;;;4981267;28;20022;-81
2022/08/26 09:16:50;;;;;;;1.65;0.77;;;26.10;56.60;;;;;;4965262;28;20387;-81
2022/08/26 09:19:37;;;;;;;1.63;0.65;;;26.10;56.70;;;;;;4997479;28;20026;-81
2022/08/26 09:22:03;;;;;;;1.58;0.90;;;26.10;56.60;;;;;;4997445;28;20040;-80
2022/08/26 09:24:30;;;;;;;1.85;0.80;;;26.10;56.50;;;;;;4997103;28;20117;-80
2022/08/26 09:26:57;;;;;;;1.13;0.70;;;26.10;56.60;;;;;;4997123;28;20029;-80
2022/08/26 09:29:29;;;;;;;1.75;0.77;;;26.10;56.50;;;;;;4997230;28;20088;-80
2022/08/26 09:32:20;;;;;;;1.17;0.60;;;26.10;56.70;;;;;;4980501;28;20033;-81
2022/08/26 09:35:02;;;;;;;1.33;0.70;;;26.20;56.70;;;;;;4996955;28;20080;-81
2022/08/26 09:37:41;;;;;;;1.02;0.80;;;26.20;56.70;;;;;;4980574;28;20494;-80
2022/08/26 09:40:30;;;;;;;1.20;0.70;;;26.10;56.60;;;;;;5013988;28;20034;-81
2022/08/26 09:43:14;;;;;;;1.40;0.90;;;26.20;56.70;;;;;;4995777;28;20037;-81
2022/08/26 09:45:44;;;;;;;1.42;0.85;;;26.20;56.70;;;;;;5014842;28;20034;-81
2022/08/26 09:48:10;;;;;;;1.42;0.80;;;26.20;56.60;;;;;;4997211;28;20069;-81
2022/08/26 09:50:50;;;;;;;1.23;0.77;;;26.20;56.60;;;;;;4980483;28;20030;-81
2022/08/26 09:53:24;;;;;;;2.33;0.80;;;26.20;56.60;;;;;;5013959;28;20050;-81
2022/08/26 09:56:07;;;;;;;1.27;0.80;;;26.20;56.80;;;;;;5014200;28;20088;-80
2022/08/26 09:58:36;;;;;;;1.33;0.60;;;26.20;56.60;;;;;;4996965;28;20463;-82
2022/08/26 10:01:06;;;;;;;2.05;0.88;;;26.20;56.60;;;;;;4979895;28;20034;-81
2022/08/26 10:03:35;;;;;;;1.73;0.90;;;26.20;56.60;;;;;;4996078;28;20030;-80
2022/08/26 10:06:16;;;;;;;1.25;0.90;;;26.30;56.70;;;;;;4980051;28;20090;-78
2022/08/26 10:08:44;;;;;;;1.20;0.70;;;26.20;56.50;;;;;;4980786;28;20087;-81
2022/08/26 10:11:22;;;;;;;2.70;0.90;;;26.30;56.70;;;;;;5003764;28;20049;-81
2022/08/26 10:13:56;;;;;;;0.98;0.80;;;26.30;56.70;;;;;;4998392;28;20026;-81
2022/08/26 10:16:33;;;;;;;2.35;0.95;;;26.30;56.70;;;;;;5014564;28;20145;-81
2022/08/26 10:19:03;;;;;;;2.10;0.98;;;26.30;56.70;;;;;;4995693;28;20040;-81
2022/08/26 10:21:37;;;;;;;1.67;0.93;;;26.30;56.70;;;;;;4996578;28;20033;-81
2022/08/26 10:24:07;;;;;;;1.77;0.90;;;26.30;56.70;;;;;;5000783;28;20030;-82
2022/08/26 10:26:52;;;;;;;2.85;1.00;;;26.30;56.70;;;;;;5001807;28;20041;-80
2022/08/26 10:29:45;;;;;;;1.23;0.70;;;26.30;56.70;;;;;;5019241;28;20026;-83
2022/08/26 10:32:18;;;;;;;1.38;0.80;;;26.30;56.60;;;;;;4999535;28;20053;-83
2022/08/26 10:34:44;;;;;;;2.67;1.00;;;26.40;56.60;;;;;;4998629;28;20097;-83
2022/08/26 10:37:18;;;;;;;1.70;0.80;;;26.40;56.50;;;;;;5014669;28;20026;-82
2022/08/26 10:40:06;;;;;;;2.23;0.80;;;26.30;56.50;;;;;;4980886;28;20036;-83
2022/08/26 10:42:44;;;;;;;2.67;0.80;;;26.30;56.60;;;;;;4996202;28;20172;-80
2022/08/26 10:45:12;;;;;;;1.35;0.57;;;26.30;56.40;;;;;;4999301;28;20041;-83
2022/08/26 10:47:54;;;;;;;2.50;0.70;;;26.40;56.50;;;;;;4999371;28;20034;-81
2022/08/26 10:50:24;;;;;;;1.58;0.88;;;26.30;56.50;;;;;;4981876;28;20025;-81
2022/08/26 10:53:13;;;;;;;1.40;0.90;;;26.30;56.40;;;;;;5013770;28;20050;-81
2022/08/26 10:55:48;;;;;;;1.60;0.80;;;26.30;56.40;;;;;;5000505;28;20034;-82
2022/08/26 10:58:45;;;;;;;1.08;0.80;;;26.30;56.40;;;;;;4999953;28;20065;-81
2022/08/26 11:01:41;;;;;;;1.98;1.02;;;26.40;56.50;;;;;;4999953;28;20050;-81
2022/08/26 11:04:19;;;;;;;2.10;1.00;;;26.30;56.40;;;;;;4999540;28;20107;-82
2022/08/26 11:06:45;;;;;;;1.42;0.80;;;26.40;56.40;;;;;;4999969;28;20492;-82
2022/08/26 11:09:31;;;;;;;1.80;0.80;;;26.40;56.40;;;;;;4984249;28;20022;-81
2022/08/26 11:11:57;;;;;;;1.23;0.90;;;26.40;56.50;;;;;;4983061;28;20034;-81
2022/08/26 11:14:23;;;;;;;2.58;0.88;;;26.40;56.40;;;;;;4983254;28;20108;-81
2022/08/26 11:16:50;;;;;;;1.23;0.70;;;26.40;56.40;;;;;;4999896;28;20034;-81
2022/08/26 11:19:38;;;;;;;0.93;0.60;;;26.40;56.40;;;;;;4999675;28;20029;-81
2022/08/26 11:22:08;;;;;;;2.20;0.90;;;26.40;56.50;;;;;;4999595;28;20065;-82
2022/08/26 11:24:44;;;;;;;2.22;0.60;;;26.40;56.40;;;;;;5017390;28;20030;-81
2022/08/26 11:27:24;;;;;;;1.10;0.80;;;26.40;56.50;;;;;;5000059;28;20026;-82
2022/08/26 11:30:11;;;;;;;0.70;0.63;;;26.40;56.40;;;;;;5016969;28;20044;-80
2022/08/26 11:32:40;;;;;;;1.02;0.70;;;26.40;56.50;;;;;;5017297;28;20042;-83
2022/08/26 11:35:06;;;;;;;2.42;0.90;;;26.40;56.40;;;;;;4999505;28;20029;-82
2022/08/26 11:37:38;;;;;;;1.33;0.77;;;26.40;56.40;;;;;;5016617;28;20026;-82
2022/08/26 11:40:29;;;;;;;0.93;0.70;;;26.40;56.40;;;;;;4999069;28;20034;-83
2022/08/26 11:42:59;;;;;;;1.15;0.60;;;26.40;56.40;;;;;;4983302;28;20454;-84
2022/08/26 11:45:41;;;;;;;1.38;0.77;;;26.40;56.20;;;;;;5009283;28;20030;-84
2022/08/26 11:48:20;;;;;;;1.05;0.75;;;26.40;56.20;;;;;;5018935;28;20072;-80
2022/08/26 11:50:58;;;;;;;0.95;0.65;;;26.40;56.10;;;;;;5016569;28;20030;-80
2022/08/26 11:53:25;;;;;;;1.80;0.70;;;26.40;56.10;;;;;;4998247;28;20129;-80
2022/08/26 11:55:53;;;;;;;0.60;0.57;;;26.40;55.90;;;;;;4998927;28;20034;-80
2022/08/26 11:58:21;;;;;;;1.85;0.73;;;26.30;55.80;;;;;;4998719;28;20022;-80
2022/08/26 12:00:56;;;;;;;1.35;0.77;;;26.40;55.90;;;;;;5015866;28;20088;-79
2022/08/26 12:03:49;;;;;;;1.05;0.73;;;26.30;55.80;;;;;;4983105;28;20037;-79
2022/08/26 12:06:20;;;;;;;1.25;0.68;;;26.30;55.90;;;;;;4998231;28;20064;-80
2022/08/26 12:08:46;;;;;;;1.55;0.77;;;26.30;55.80;;;;;;4998203;28;20116;-80
2022/08/26 12:11:27;;;;;;;0.88;0.73;;;26.30;55.80;;;;;;4982196;28;20025;-79
2022/08/26 12:14:01;;;;;;;0.70;0.60;;;26.30;55.90;;;;;;4998535;28;20105;-80
2022/08/26 12:16:30;;;;;;;0.80;0.70;;;26.30;55.90;;;;;;4982177;28;20026;-79
2022/08/26 12:18:57;;;;;;;0.55;0.50;;;26.30;55.80;;;;;;4997996;28;20056;-79
2022/08/26 12:21:29;;;;;;;1.00;0.60;;;26.30;55.80;;;;;;4982083;28;20378;-79
2022/08/26 12:24:00;;;;;;;0.75;0.70;;;26.30;55.90;;;;;;4982083;28;20026;-79
2022/08/26 12:26:27;;;;;;;0.60;0.60;;;26.30;55.80;;;;;;4998350;28;20425;-80
2022/08/26 12:28:59;;;;;;;0.88;0.57;;;26.30;55.80;;;;;;4982104;28;20064;-80
2022/08/26 12:31:33;;;;;;;1.40;0.70;;;26.30;55.90;;;;;;5015324;28;20037;-83
2022/08/26 12:34:03;;;;;;;1.33;0.82;;;26.30;55.90;;;;;;4982453;28;20088;-83
2022/08/26 12:36:33;;;;;;;1.73;0.60;;;26.30;55.90;;;;;;4982179;28;20466;-84
2022/08/26 12:39:12;;;;;;;1.00;0.70;;;26.20;55.70;;;;;;4982766;28;20080;-84
2022/08/26 12:41:57;;;;;;;0.50;0.50;;;26.20;55.80;;;;;;5016472;28;20540;-83
2022/08/26 12:44:31;;;;;;;1.17;0.60;;;26.20;55.90;;;;;;4998457;28;20053;-83
2022/08/26 12:47:16;;;;;;;2.30;0.77;;;26.20;55.90;;;;;;4998308;28;20041;-83
2022/08/26 12:49:42;;;;;;;;;;;26.20;55.90;;;;;;4998195;28;20101;-82
2022/08/26 12:52:28;;;;;;;0.98;0.77;;;26.20;55.70;;;;;;4981556;28;19992;-82
2022/08/26 12:55:01;;;;;;;0.40;0.40;;;26.20;55.80;;;;;;4998038;28;20022;-84
2022/08/26 12:57:31;;;;;;;1.02;0.65;;;26.20;55.90;;;;;;4998446;28;20057;-83
2022/08/26 13:00:41;;;;;;;0.98;0.65;;;26.20;56.10;;;;;;4981769;28;20050;-83
2022/08/26 13:03:47;;;;;;;0.63;0.63;;;26.20;56.20;;;;;;5012720;28;20051;-84
2022/08/26 13:06:21;;;;;;;1.15;0.63;;;26.20;56.20;;;;;;4923237;29;20035;-84
2022/08/26 13:08:51;;;;;;;1.73;0.80;;;26.10;56.10;;;;;;4954805;29;20085;-83